Snyder, Missouri
Current Conditions -  °F | °C
As of 4:15 AM on Thursday 27 Nov 2014 (Local Time) from KMHL Reporting Station
Overcast Overcast  
Wind Chill: 22°   Ceiling: 1400
Heat Index: 32°   Visibility: 10mi
Dew Point: 27°   Wind: 14mph
Humidity: 80%   Direction: 290°WNW
Pressure: 30.44"   Gusts: NA
Location:  39.5082°N, 93.2104°W
Report Text: KMHL 271015Z AUTO 29012KT 10SM OVC014 00/M03 A3044 RMK AO2
Loading
Personal Weather Stations






























Interactive Weather Map New forecast layout! Learn more

10-Day Weather Forecast

Advertisements
Track Severe Weather on mobile